TimeMST,TemperatureF,Dew PointF,Humidity,Sea Level PressureIn,VisibilityMPH,Wind Direction,Wind SpeedMPH,Gust SpeedMPH,PrecipitationIn,Events,Conditions,WindDirDegrees,DateUTC
12:14 AM,19.4,12.2,74,30.37,-9999.0,Calm,Calm,-,N/A,,Clear,0,2012-11-16 07:14:00
12:34 AM,17.6,12.2,79,30.37,-9999.0,Calm,Calm,-,N/A,,Clear,0,2012-11-16 07:34:00
12:55 AM,17.6,12.2,79,30.37,-9999.0,Calm,Calm,-,N/A,,Clear,0,2012-11-16 07:55:00
1:15 AM,17.6,12.2,79,30.37,-9999.0,Calm,Calm,-,N/A,,Clear,0,2012-11-16 08:15:00
1:35 AM,17.6,12.2,79,30.37,-9999.0,Calm,Calm,-,N/A,,Clear,0,2012-11-16 08:35:00
1:55 AM,15.8,10.4,79,30.37,-9999.0,Calm,Calm,-,N/A,,Clear,0,2012-11-16 08:55:00
2:15 AM,15.8,10.4,79,30.38,-9999.0,Calm,Calm,-,N/A,,Clear,0,2012-11-16 09:15:00
2:35 AM,14.0,10.4,86,30.38,-9999.0,Calm,Calm,-,N/A,,Unknown,0,2012-11-16 09:35:00
2:55 AM,14.0,10.4,86,30.39,-9999.0,Calm,Calm,-,N/A,,Unknown,0,2012-11-16 09:55:00
3:15 AM,14.0,10.4,86,30.38,-9999.0,Calm,Calm,-,N/A,,Unknown,0,2012-11-16 10:15:00
3:35 AM,14.0,10.4,86,30.37,-9999.0,Calm,Calm,-,N/A,,Clear,0,2012-11-16 10:35:00
3:55 AM,12.2,8.6,85,30.37,-9999.0,SE,3.5,-,N/A,,Unknown,130,2012-11-16 10:55:00
4:15 AM,14.0,10.4,86,30.37,-9999.0,Calm,Calm,-,N/A,,Clear,0,2012-11-16 11:15:00
4:35 AM,12.2,8.6,85,30.37,-9999.0,Calm,Calm,-,N/A,,Unknown,0,2012-11-16 11:35:00
4:55 AM,12.2,8.6,85,30.37,-9999.0,Calm,Calm,-,N/A,,Clear,0,2012-11-16 11:55:00
5:15 AM,12.2,8.6,85,30.37,-9999.0,Calm,Calm,-,N/A,,Clear,0,2012-11-16 12:15:00
5:35 AM,12.2,8.6,85,30.37,-9999.0,Calm,Calm,-,N/A,,Unknown,0,2012-11-16 12:35:00
5:55 AM,12.2,8.6,85,30.37,-9999.0,Calm,Calm,-,N/A,,Unknown,0,2012-11-16 12:55:00
6:15 AM,12.2,8.6,85,30.37,-9999.0,Calm,Calm,-,N/A,,Clear,0,2012-11-16 13:15:00
6:35 AM,12.2,8.6,85,30.37,-9999.0,Calm,Calm,-,N/A,,Clear,0,2012-11-16 13:35:00
6:55 AM,12.2,8.6,85,30.37,-9999.0,Calm,Calm,-,N/A,,Clear,0,2012-11-16 13:55:00
7:15 AM,12.2,8.6,85,30.38,-9999.0,Calm,Calm,-,N/A,,Clear,0,2012-11-16 14:15:00
7:35 AM,12.2,8.6,85,30.38,-9999.0,Calm,Calm,-,N/A,,Clear,0,2012-11-16 14:35:00
7:55 AM,14.0,10.4,86,30.38,-9999.0,Calm,Calm,-,N/A,,Clear,0,2012-11-16 14:55:00
8:15 AM,14.0,10.4,86,30.38,-9999.0,Calm,Calm,-,N/A,,Clear,0,2012-11-16 15:15:00
8:35 AM,17.6,10.4,73,30.39,-9999.0,Calm,Calm,-,N/A,,Clear,0,2012-11-16 15:35:00
8:54 AM,19.4,12.2,74,30.38,-9999.0,Calm,Calm,-,N/A,,Clear,0,2012-11-16 15:54:00
9:15 AM,21.2,14.0,74,30.37,-9999.0,Calm,Calm,-,N/A,,Unknown,0,2012-11-16 16:15:00
9:35 AM,23.0,14.0,68,30.37,-9999.0,Calm,Calm,-,N/A,,Unknown,0,2012-11-16 16:35:00
9:55 AM,28.4,17.6,64,30.36,-9999.0,Calm,Calm,-,N/A,,Clear,0,2012-11-16 16:55:00
10:15 AM,30.2,17.6,60,30.35,-9999.0,Calm,Calm,-,N/A,,Unknown,0,2012-11-16 17:15:00
10:35 AM,30.2,17.6,60,30.34,-9999.0,Calm,Calm,-,N/A,,Clear,0,2012-11-16 17:35:00
10:55 AM,30.2,17.6,60,30.33,-9999.0,Calm,Calm,-,N/A,,Unknown,0,2012-11-16 17:55:00
11:15 AM,33.8,17.6,52,30.31,-9999.0,Calm,Calm,-,N/A,,Scattered Clouds,0,2012-11-16 18:15:00
11:35 AM,33.8,17.6,52,30.29,-9999.0,Calm,Calm,-,N/A,,Scattered Clouds,0,2012-11-16 18:35:00
11:54 AM,35.6,15.8,44,30.28,-9999.0,Calm,Calm,-,N/A,,Scattered Clouds,0,2012-11-16 18:54:00
12:14 PM,37.4,14.0,38,30.26,-9999.0,Calm,Calm,-,N/A,,Scattered Clouds,0,2012-11-16 19:14:00
12:35 PM,37.4,15.8,41,30.25,-9999.0,Calm,Calm,-,N/A,,Clear,0,2012-11-16 19:35:00
12:55 PM,41.0,15.8,36,30.24,-9999.0,Calm,Calm,-,N/A,,Clear,0,2012-11-16 19:55:00
1:15 PM,42.8,15.8,34,30.23,-9999.0,Calm,Calm,-,N/A,,Mostly Cloudy,0,2012-11-16 20:15:00
1:35 PM,44.6,15.8,31,30.22,-9999.0,Calm,Calm,-,N/A,,Overcast,0,2012-11-16 20:35:00
1:55 PM,44.6,17.6,34,30.22,-9999.0,Calm,Calm,-,N/A,,Overcast,0,2012-11-16 20:55:00
2:15 PM,46.4,17.6,32,30.21,-9999.0,ESE,3.5,-,N/A,,Overcast,110,2012-11-16 21:15:00
2:35 PM,50.0,17.6,28,30.21,-9999.0,North,4.6,-,N/A,,Unknown,350,2012-11-16 21:35:00
2:55 PM,46.4,14.0,27,30.21,-9999.0,West,4.6,-,N/A,,Overcast,280,2012-11-16 21:55:00
3:15 PM,44.6,17.6,34,30.21,-9999.0,West,6.9,-,N/A,,Unknown,260,2012-11-16 22:15:00
3:35 PM,42.8,17.6,36,30.22,-9999.0,WSW,3.5,-,N/A,,Unknown,250,2012-11-16 22:35:00
3:55 PM,46.4,14.0,27,30.21,-9999.0,SSE,3.5,-,N/A,,Overcast,150,2012-11-16 22:55:00
4:15 PM,44.6,14.0,29,30.21,-9999.0,SSE,5.8,-,N/A,,Overcast,160,2012-11-16 23:15:00
4:35 PM,44.6,14.0,29,30.21,-9999.0,Calm,Calm,-,N/A,,Overcast,0,2012-11-16 23:35:00
4:55 PM,42.8,15.8,34,30.19,-9999.0,SE,5.8,-,N/A,,Overcast,130,2012-11-16 23:55:00
5:15 PM,41.0,17.6,39,30.19,-9999.0,East,5.8,-,N/A,,Overcast,100,2012-11-17 00:15:00
5:35 PM,41.0,17.6,39,30.19,-9999.0,SSE,3.5,-,N/A,,Overcast,150,2012-11-17 00:35:00
5:55 PM,41.0,15.8,36,30.20,-9999.0,Calm,Calm,-,N/A,,Overcast,0,2012-11-17 00:55:00
6:14 PM,42.8,14.0,31,30.20,-9999.0,SE,3.5,-,N/A,,Overcast,140,2012-11-17 01:14:00
6:35 PM,41.0,17.6,39,30.19,-9999.0,WSW,3.5,-,N/A,,Overcast,240,2012-11-17 01:35:00
6:55 PM,39.2,17.6,42,30.19,-9999.0,Calm,Calm,-,N/A,,Overcast,0,2012-11-17 01:55:00
7:15 PM,37.4,19.4,48,30.19,-9999.0,Calm,Calm,-,N/A,,Overcast,0,2012-11-17 02:15:00
7:35 PM,35.6,21.2,56,30.19,-9999.0,Calm,Calm,-,N/A,,Overcast,0,2012-11-17 02:35:00
7:55 PM,35.6,21.2,56,30.19,-9999.0,ESE,4.6,-,N/A,,Overcast,120,2012-11-17 02:55:00
8:15 PM,35.6,21.2,56,30.18,-9999.0,ENE,4.6,-,N/A,,Overcast,60,2012-11-17 03:15:00
8:55 PM,35.6,19.4,52,30.19,-9999.0,Calm,Calm,-,N/A,,Scattered Clouds,0,2012-11-17 03:55:00
9:15 PM,35.6,21.2,56,30.19,-9999.0,Calm,Calm,-,N/A,,Scattered Clouds,0,2012-11-17 04:15:00
9:34 PM,35.6,21.2,56,30.19,-9999.0,East,4.6,-,N/A,,Mostly Cloudy,100,2012-11-17 04:34:00
9:55 PM,33.8,21.2,60,30.19,-9999.0,Calm,Calm,-,N/A,,Mostly Cloudy,0,2012-11-17 04:55:00
10:15 PM,33.8,23.0,65,30.20,-9999.0,East,4.6,-,N/A,,Scattered Clouds,80,2012-11-17 05:15:00
10:35 PM,35.6,23.0,60,30.19,-9999.0,East,5.8,-,N/A,,Clear,100,2012-11-17 05:35:00
10:54 PM,33.8,21.2,60,30.21,-9999.0,Calm,Calm,-,N/A,,Clear,0,2012-11-17 05:54:00
11:15 PM,33.8,23.0,65,30.21,-9999.0,Calm,Calm,-,N/A,,Mostly Cloudy,0,2012-11-17 06:15:00
11:35 PM,33.8,23.0,65,30.22,-9999.0,ENE,3.5,-,N/A,,Overcast,60,2012-11-17 06:35:00
11:54 PM,33.8,23.0,65,30.22,-9999.0,South,5.8,-,N/A,,Mostly Cloudy,170,2012-11-17 06:54:00